sensor_id;sensor_type;location;lat;lon;timestamp;P1;durP1;ratioP1;P2;durP2;ratioP2
24044;SDS011;26257;49.442;8.422;2022-12-18T00:01:23;88.65;;;31.98;;
24044;SDS011;26257;49.442;8.422;2022-12-18T00:03:51;76.38;;;29.67;;
24044;SDS011;26257;49.442;8.422;2022-12-18T00:06:18;83.40;;;30.92;;
24044;SDS011;26257;49.442;8.422;2022-12-18T00:08:45;90.40;;;32.13;;
24044;SDS011;26257;49.442;8.422;2022-12-18T00:11:12;79.88;;;30.92;;
24044;SDS011;26257;49.442;8.422;2022-12-18T00:13:42;90.47;;;35.17;;
24044;SDS011;26257;49.442;8.422;2022-12-18T00:16:09;88.28;;;31.58;;
24044;SDS011;26257;49.442;8.422;2022-12-18T00:18:37;77.55;;;29.70;;
24044;SDS011;26257;49.442;8.422;2022-12-18T00:21:03;80.85;;;28.38;;
24044;SDS011;26257;49.442;8.422;2022-12-18T00:23:31;76.22;;;29.60;;
24044;SDS011;26257;49.442;8.422;2022-12-18T00:26:02;77.80;;;27.25;;
24044;SDS011;26257;49.442;8.422;2022-12-18T00:28:30;85.60;;;28.20;;
24044;SDS011;26257;49.442;8.422;2022-12-18T00:31:06;70.13;;;27.83;;
24044;SDS011;26257;49.442;8.422;2022-12-18T00:33:33;78.65;;;29.33;;
24044;SDS011;26257;49.442;8.422;2022-12-18T00:36:00;82.10;;;29.67;;
24044;SDS011;26257;49.442;8.422;2022-12-18T00:38:28;80.63;;;29.25;;
24044;SDS011;26257;49.442;8.422;2022-12-18T00:40:54;82.65;;;29.05;;
24044;SDS011;26257;49.442;8.422;2022-12-18T00:43:19;79.13;;;29.25;;
24044;SDS011;26257;49.442;8.422;2022-12-18T00:45:45;75.00;;;27.90;;
24044;SDS011;26257;49.442;8.422;2022-12-18T00:48:11;79.80;;;30.77;;
24044;SDS011;26257;49.442;8.422;2022-12-18T00:50:37;76.05;;;29.20;;
24044;SDS011;26257;49.442;8.422;2022-12-18T00:53:03;87.75;;;30.98;;
24044;SDS011;26257;49.442;8.422;2022-12-18T00:55:28;80.82;;;29.60;;
24044;SDS011;26257;49.442;8.422;2022-12-18T00:57:54;71.00;;;27.27;;
24044;SDS011;26257;49.442;8.422;2022-12-18T01:00:19;81.13;;;30.50;;
24044;SDS011;26257;49.442;8.422;2022-12-18T01:02:45;75.93;;;28.40;;
24044;SDS011;26257;49.442;8.422;2022-12-18T01:05:12;89.40;;;32.05;;
24044;SDS011;26257;49.442;8.422;2022-12-18T01:07:38;85.47;;;31.45;;
24044;SDS011;26257;49.442;8.422;2022-12-18T01:10:05;88.63;;;31.95;;
24044;SDS011;26257;49.442;8.422;2022-12-18T01:12:31;89.95;;;31.67;;
24044;SDS011;26257;49.442;8.422;2022-12-18T01:14:57;91.13;;;32.28;;
24044;SDS011;26257;49.442;8.422;2022-12-18T01:17:23;79.53;;;30.88;;
24044;SDS011;26257;49.442;8.422;2022-12-18T01:19:48;94.68;;;31.98;;
24044;SDS011;26257;49.442;8.422;2022-12-18T01:22:15;88.78;;;30.88;;
24044;SDS011;26257;49.442;8.422;2022-12-18T01:24:40;96.45;;;33.75;;
24044;SDS011;26257;49.442;8.422;2022-12-18T01:27:06;93.03;;;32.80;;
24044;SDS011;26257;49.442;8.422;2022-12-18T01:29:31;98.90;;;33.97;;
24044;SDS011;26257;49.442;8.422;2022-12-18T01:31:57;81.90;;;30.33;;
24044;SDS011;26257;49.442;8.422;2022-12-18T01:34:23;95.60;;;33.95;;
24044;SDS011;26257;49.442;8.422;2022-12-18T01:36:48;94.38;;;31.67;;
24044;SDS011;26257;49.442;8.422;2022-12-18T01:39:17;102.70;;;35.63;;
24044;SDS011;26257;49.442;8.422;2022-12-18T01:41:44;90.43;;;32.55;;
24044;SDS011;26257;49.442;8.422;2022-12-18T01:52:56;94.88;;;32.78;;
24044;SDS011;26257;49.442;8.422;2022-12-18T01:55:26;93.95;;;33.60;;
24044;SDS011;26257;49.442;8.422;2022-12-18T01:57:55;92.15;;;33.30;;
24044;SDS011;26257;49.442;8.422;2022-12-18T02:00:22;98.78;;;32.78;;
24044;SDS011;26257;49.442;8.422;2022-12-18T02:02:49;81.32;;;31.65;;
24044;SDS011;26257;49.442;8.422;2022-12-18T02:05:16;85.25;;;30.65;;
24044;SDS011;26257;49.442;8.422;2022-12-18T02:08:07;79.40;;;27.15;;
24044;SDS011;26257;49.442;8.422;2022-12-18T02:10:54;73.32;;;28.75;;
24044;SDS011;26257;49.442;8.422;2022-12-18T02:18:34;77.85;;;26.23;;
24044;SDS011;26257;49.442;8.422;2022-12-18T02:21:17;73.45;;;27.80;;
24044;SDS011;26257;49.442;8.422;2022-12-18T02:26:56;77.60;;;27.38;;
24044;SDS011;26257;49.442;8.422;2022-12-18T02:29:35;81.18;;;28.67;;
24044;SDS011;26257;49.442;8.422;2022-12-18T02:32:06;77.80;;;29.02;;
24044;SDS011;26257;49.442;8.422;2022-12-18T02:34:39;80.63;;;29.75;;
24044;SDS011;26257;49.442;8.422;2022-12-18T02:37:07;73.93;;;26.08;;
24044;SDS011;26257;49.442;8.422;2022-12-18T02:39:37;70.07;;;26.33;;
24044;SDS011;26257;49.442;8.422;2022-12-18T02:42:05;71.43;;;25.73;;
24044;SDS011;26257;49.442;8.422;2022-12-18T02:44:34;79.30;;;28.33;;
24044;SDS011;26257;49.442;8.422;2022-12-18T02:47:00;71.85;;;28.15;;
24044;SDS011;26257;49.442;8.422;2022-12-18T03:08:54;80.05;;;28.65;;
24044;SDS011;26257;49.442;8.422;2022-12-18T03:11:23;81.53;;;29.83;;
24044;SDS011;26257;49.442;8.422;2022-12-18T03:14:11;97.30;;;30.73;;
24044;SDS011;26257;49.442;8.422;2022-12-18T03:16:40;87.75;;;29.15;;
24044;SDS011;26257;49.442;8.422;2022-12-18T03:19:09;100.32;;;33.53;;
24044;SDS011;26257;49.442;8.422;2022-12-18T03:21:42;80.95;;;29.05;;
24044;SDS011;26257;49.442;8.422;2022-12-18T03:24:10;96.60;;;32.25;;
24044;SDS011;26257;49.442;8.422;2022-12-18T03:26:37;91.47;;;32.28;;
24044;SDS011;26257;49.442;8.422;2022-12-18T03:29:09;83.65;;;32.35;;
24044;SDS011;26257;49.442;8.422;2022-12-18T03:31:42;83.20;;;30.30;;
24044;SDS011;26257;49.442;8.422;2022-12-18T03:34:15;80.82;;;29.88;;
24044;SDS011;26257;49.442;8.422;2022-12-18T03:36:47;85.90;;;32.92;;
24044;SDS011;26257;49.442;8.422;2022-12-18T03:39:13;85.55;;;30.25;;
24044;SDS011;26257;49.442;8.422;2022-12-18T03:41:52;84.25;;;31.50;;
24044;SDS011;26257;49.442;8.422;2022-12-18T03:44:32;81.40;;;29.98;;
24044;SDS011;26257;49.442;8.422;2022-12-18T03:47:07;82.70;;;32.08;;
24044;SDS011;26257;49.442;8.422;2022-12-18T03:55:11;81.57;;;30.42;;
24044;SDS011;26257;49.442;8.422;2022-12-18T03:57:37;89.90;;;31.77;;
24044;SDS011;26257;49.442;8.422;2022-12-18T04:00:08;98.00;;;32.47;;
24044;SDS011;26257;49.442;8.422;2022-12-18T04:02:37;86.03;;;29.40;;
24044;SDS011;26257;49.442;8.422;2022-12-18T04:05:06;104.18;;;32.83;;
24044;SDS011;26257;49.442;8.422;2022-12-18T04:07:33;87.43;;;32.30;;
24044;SDS011;26257;49.442;8.422;2022-12-18T04:09:59;85.45;;;31.73;;
24044;SDS011;26257;49.442;8.422;2022-12-18T04:12:28;86.15;;;31.75;;
24044;SDS011;26257;49.442;8.422;2022-12-18T04:14:54;91.93;;;30.80;;
24044;SDS011;26257;49.442;8.422;2022-12-18T04:17:19;83.63;;;31.42;;
24044;SDS011;26257;49.442;8.422;2022-12-18T04:19:45;86.93;;;32.00;;
24044;SDS011;26257;49.442;8.422;2022-12-18T04:22:10;77.90;;;28.02;;
24044;SDS011;26257;49.442;8.422;2022-12-18T04:24:36;82.53;;;28.65;;
24044;SDS011;26257;49.442;8.422;2022-12-18T04:27:02;86.57;;;30.13;;
24044;SDS011;26257;49.442;8.422;2022-12-18T04:29:28;73.40;;;27.80;;
24044;SDS011;26257;49.442;8.422;2022-12-18T04:31:53;82.18;;;29.95;;
24044;SDS011;26257;49.442;8.422;2022-12-18T04:34:19;73.22;;;28.17;;
24044;SDS011;26257;49.442;8.422;2022-12-18T04:36:45;87.05;;;30.70;;
24044;SDS011;26257;49.442;8.422;2022-12-18T04:39:10;88.47;;;28.27;;
24044;SDS011;26257;49.442;8.422;2022-12-18T04:41:36;85.97;;;28.45;;
24044;SDS011;26257;49.442;8.422;2022-12-18T04:44:01;83.20;;;30.45;;
24044;SDS011;26257;49.442;8.422;2022-12-18T04:46:26;80.65;;;29.23;;
24044;SDS011;26257;49.442;8.422;2022-12-18T04:48:52;81.80;;;29.17;;
24044;SDS011;26257;49.442;8.422;2022-12-18T04:51:17;89.75;;;29.50;;
24044;SDS011;26257;49.442;8.422;2022-12-18T04:53:43;82.60;;;27.80;;
24044;SDS011;26257;49.442;8.422;2022-12-18T04:56:09;80.72;;;28.08;;
24044;SDS011;26257;49.442;8.422;2022-12-18T04:58:37;80.75;;;29.42;;
24044;SDS011;26257;49.442;8.422;2022-12-18T05:01:07;82.90;;;27.75;;
24044;SDS011;26257;49.442;8.422;2022-12-18T05:03:34;83.97;;;30.15;;
24044;SDS011;26257;49.442;8.422;2022-12-18T05:05:59;80.95;;;28.42;;
24044;SDS011;26257;49.442;8.422;2022-12-18T05:08:25;86.93;;;30.27;;
24044;SDS011;26257;49.442;8.422;2022-12-18T05:10:58;84.00;;;27.83;;
24044;SDS011;26257;49.442;8.422;2022-12-18T05:13:31;95.43;;;29.57;;
24044;SDS011;26257;49.442;8.422;2022-12-18T05:15:58;84.13;;;29.75;;
24044;SDS011;26257;49.442;8.422;2022-12-18T05:18:23;82.07;;;28.60;;
24044;SDS011;26257;49.442;8.422;2022-12-18T05:20:52;88.97;;;30.10;;
24044;SDS011;26257;49.442;8.422;2022-12-18T05:23:19;96.00;;;30.08;;
24044;SDS011;26257;49.442;8.422;2022-12-18T05:25:51;93.25;;;32.28;;
24044;SDS011;26257;49.442;8.422;2022-12-18T05:28:23;89.82;;;28.48;;
24044;SDS011;26257;49.442;8.422;2022-12-18T05:30:50;92.13;;;31.15;;
24044;SDS011;26257;49.442;8.422;2022-12-18T05:33:20;95.05;;;32.22;;
24044;SDS011;26257;49.442;8.422;2022-12-18T05:35:52;86.82;;;30.50;;
24044;SDS011;26257;49.442;8.422;2022-12-18T05:38:19;87.25;;;28.45;;
24044;SDS011;26257;49.442;8.422;2022-12-18T05:40:46;99.78;;;31.60;;
24044;SDS011;26257;49.442;8.422;2022-12-18T05:43:13;94.43;;;31.13;;
24044;SDS011;26257;49.442;8.422;2022-12-18T05:45:38;77.28;;;30.17;;
24044;SDS011;26257;49.442;8.422;2022-12-18T05:48:05;97.75;;;30.73;;
24044;SDS011;26257;49.442;8.422;2022-12-18T05:50:30;99.60;;;36.63;;
24044;SDS011;26257;49.442;8.422;2022-12-18T05:52:59;107.88;;;40.80;;
24044;SDS011;26257;49.442;8.422;2022-12-18T05:55:24;93.78;;;31.58;;
24044;SDS011;26257;49.442;8.422;2022-12-18T05:57:51;87.80;;;30.13;;
24044;SDS011;26257;49.442;8.422;2022-12-18T06:00:16;83.63;;;29.17;;
24044;SDS011;26257;49.442;8.422;2022-12-18T06:02:42;93.55;;;29.90;;
24044;SDS011;26257;49.442;8.422;2022-12-18T06:05:07;88.38;;;29.77;;
24044;SDS011;26257;49.442;8.422;2022-12-18T06:07:33;78.57;;;29.10;;
24044;SDS011;26257;49.442;8.422;2022-12-18T06:09:58;82.85;;;28.42;;
24044;SDS011;26257;49.442;8.422;2022-12-18T06:12:23;81.35;;;30.38;;
24044;SDS011;26257;49.442;8.422;2022-12-18T06:14:49;85.68;;;28.42;;
24044;SDS011;26257;49.442;8.422;2022-12-18T06:17:14;87.30;;;27.95;;
24044;SDS011;26257;49.442;8.422;2022-12-18T06:19:40;93.65;;;30.40;;
24044;SDS011;26257;49.442;8.422;2022-12-18T06:22:05;85.68;;;29.30;;
24044;SDS011;26257;49.442;8.422;2022-12-18T06:24:30;85.93;;;29.45;;
24044;SDS011;26257;49.442;8.422;2022-12-18T06:26:56;86.45;;;28.40;;
24044;SDS011;26257;49.442;8.422;2022-12-18T06:29:21;82.97;;;30.30;;
24044;SDS011;26257;49.442;8.422;2022-12-18T06:31:47;79.80;;;29.05;;
24044;SDS011;26257;49.442;8.422;2022-12-18T06:34:12;77.75;;;28.80;;
24044;SDS011;26257;49.442;8.422;2022-12-18T06:36:37;89.78;;;29.95;;
24044;SDS011;26257;49.442;8.422;2022-12-18T06:39:03;78.90;;;29.10;;
24044;SDS011;26257;49.442;8.422;2022-12-18T06:41:28;88.65;;;28.98;;
24044;SDS011;26257;49.442;8.422;2022-12-18T06:43:55;86.47;;;29.48;;
24044;SDS011;26257;49.442;8.422;2022-12-18T06:46:22;89.95;;;31.10;;
24044;SDS011;26257;49.442;8.422;2022-12-18T06:48:48;89.55;;;29.38;;
24044;SDS011;26257;49.442;8.422;2022-12-18T06:51:18;95.38;;;29.35;;
24044;SDS011;26257;49.442;8.422;2022-12-18T06:53:45;103.63;;;37.78;;
24044;SDS011;26257;49.442;8.422;2022-12-18T06:56:12;156.85;;;63.38;;
24044;SDS011;26257;49.442;8.422;2022-12-18T06:58:38;200.27;;;79.60;;
24044;SDS011;26257;49.442;8.422;2022-12-18T07:01:05;102.70;;;37.45;;
24044;SDS011;26257;49.442;8.422;2022-12-18T07:03:33;110.15;;;36.50;;
24044;SDS011;26257;49.442;8.422;2022-12-18T07:05:58;97.38;;;34.22;;
24044;SDS011;26257;49.442;8.422;2022-12-18T07:08:24;89.93;;;32.25;;
24044;SDS011;26257;49.442;8.422;2022-12-18T07:10:50;91.13;;;31.27;;
24044;SDS011;26257;49.442;8.422;2022-12-18T07:13:15;88.60;;;32.20;;
24044;SDS011;26257;49.442;8.422;2022-12-18T07:15:42;100.97;;;33.60;;
24044;SDS011;26257;49.442;8.422;2022-12-18T07:18:08;95.22;;;32.08;;
24044;SDS011;26257;49.442;8.422;2022-12-18T07:20:34;100.72;;;34.55;;
24044;SDS011;26257;49.442;8.422;2022-12-18T07:23:01;101.35;;;33.40;;
24044;SDS011;26257;49.442;8.422;2022-12-18T07:25:27;94.22;;;32.45;;
24044;SDS011;26257;49.442;8.422;2022-12-18T07:27:53;104.65;;;33.80;;
24044;SDS011;26257;49.442;8.422;2022-12-18T07:30:19;93.55;;;31.75;;
24044;SDS011;26257;49.442;8.422;2022-12-18T07:32:44;89.70;;;31.27;;
24044;SDS011;26257;49.442;8.422;2022-12-18T07:35:13;82.80;;;33.30;;
24044;SDS011;26257;49.442;8.422;2022-12-18T07:37:39;96.78;;;32.80;;
24044;SDS011;26257;49.442;8.422;2022-12-18T07:40:05;92.78;;;32.22;;
24044;SDS011;26257;49.442;8.422;2022-12-18T07:42:31;98.72;;;33.85;;
24044;SDS011;26257;49.442;8.422;2022-12-18T07:44:57;103.05;;;35.42;;
24044;SDS011;26257;49.442;8.422;2022-12-18T07:47:26;112.50;;;39.03;;
24044;SDS011;26257;49.442;8.422;2022-12-18T07:49:52;114.47;;;38.30;;
24044;SDS011;26257;49.442;8.422;2022-12-18T07:52:17;120.53;;;39.03;;
24044;SDS011;26257;49.442;8.422;2022-12-18T07:54:43;129.27;;;40.85;;
24044;SDS011;26257;49.442;8.422;2022-12-18T07:57:09;119.43;;;42.05;;
24044;SDS011;26257;49.442;8.422;2022-12-18T07:59:34;108.28;;;38.15;;
24044;SDS011;26257;49.442;8.422;2022-12-18T08:02:00;90.88;;;33.22;;
24044;SDS011;26257;49.442;8.422;2022-12-18T08:04:26;101.13;;;33.22;;
24044;SDS011;26257;49.442;8.422;2022-12-18T08:06:52;100.97;;;33.78;;
24044;SDS011;26257;49.442;8.422;2022-12-18T08:09:17;99.47;;;36.03;;
24044;SDS011;26257;49.442;8.422;2022-12-18T08:11:43;212.38;;;84.72;;
24044;SDS011;26257;49.442;8.422;2022-12-18T08:14:09;110.65;;;40.72;;
24044;SDS011;26257;49.442;8.422;2022-12-18T08:16:35;89.65;;;32.55;;
24044;SDS011;26257;49.442;8.422;2022-12-18T08:19:00;104.85;;;34.53;;
24044;SDS011;26257;49.442;8.422;2022-12-18T08:21:27;99.53;;;33.08;;
24044;SDS011;26257;49.442;8.422;2022-12-18T08:23:55;100.80;;;34.95;;
24044;SDS011;26257;49.442;8.422;2022-12-18T08:34:06;94.78;;;33.58;;
24044;SDS011;26257;49.442;8.422;2022-12-18T08:36:33;93.50;;;36.53;;
24044;SDS011;26257;49.442;8.422;2022-12-18T08:38:58;97.20;;;39.10;;
24044;SDS011;26257;49.442;8.422;2022-12-18T08:41:23;96.85;;;34.65;;
24044;SDS011;26257;49.442;8.422;2022-12-18T08:43:49;100.35;;;34.25;;
24044;SDS011;26257;49.442;8.422;2022-12-18T08:46:37;90.50;;;33.90;;
24044;SDS011;26257;49.442;8.422;2022-12-18T09:19:23;69.90;;;30.35;;
24044;SDS011;26257;49.442;8.422;2022-12-18T09:21:48;67.25;;;29.20;;
24044;SDS011;26257;49.442;8.422;2022-12-18T09:24:20;71.03;;;28.83;;
24044;SDS011;26257;49.442;8.422;2022-12-18T09:26:46;66.72;;;28.73;;
24044;SDS011;26257;49.442;8.422;2022-12-18T09:29:12;62.92;;;27.75;;
24044;SDS011;26257;49.442;8.422;2022-12-18T09:31:38;71.28;;;29.33;;
24044;SDS011;26257;49.442;8.422;2022-12-18T09:34:13;60.60;;;28.50;;
24044;SDS011;26257;49.442;8.422;2022-12-18T09:36:39;64.28;;;27.42;;
24044;SDS011;26257;49.442;8.422;2022-12-18T09:39:05;59.78;;;26.95;;
24044;SDS011;26257;49.442;8.422;2022-12-18T09:41:39;63.15;;;28.60;;
24044;SDS011;26257;49.442;8.422;2022-12-18T09:50:21;67.60;;;30.13;;
24044;SDS011;26257;49.442;8.422;2022-12-18T09:52:49;63.28;;;27.08;;
24044;SDS011;26257;49.442;8.422;2022-12-18T09:55:29;55.40;;;25.77;;
24044;SDS011;26257;49.442;8.422;2022-12-18T09:58:44;59.20;;;26.50;;
24044;SDS011;26257;49.442;8.422;2022-12-18T10:00:58;54.17;;;26.60;;
24044;SDS011;26257;49.442;8.422;2022-12-18T10:03:32;58.17;;;27.70;;
24044;SDS011;26257;49.442;8.422;2022-12-18T10:06:07;59.30;;;27.90;;
24044;SDS011;26257;49.442;8.422;2022-12-18T10:14:54;52.75;;;26.80;;
24044;SDS011;26257;49.442;8.422;2022-12-18T10:17:38;49.60;;;26.35;;
24044;SDS011;26257;49.442;8.422;2022-12-18T10:21:07;49.85;;;27.92;;
24044;SDS011;26257;49.442;8.422;2022-12-18T10:23:15;48.35;;;26.17;;
24044;SDS011;26257;49.442;8.422;2022-12-18T10:26:10;52.38;;;27.70;;
24044;SDS011;26257;49.442;8.422;2022-12-18T10:28:37;54.45;;;28.42;;
24044;SDS011;26257;49.442;8.422;2022-12-18T10:31:05;54.15;;;27.88;;
24044;SDS011;26257;49.442;8.422;2022-12-18T10:33:32;57.50;;;28.17;;
24044;SDS011;26257;49.442;8.422;2022-12-18T10:35:58;62.53;;;32.05;;
24044;SDS011;26257;49.442;8.422;2022-12-18T10:38:26;57.95;;;30.63;;
24044;SDS011;26257;49.442;8.422;2022-12-18T10:43:39;50.63;;;25.90;;
24044;SDS011;26257;49.442;8.422;2022-12-18T10:48:51;44.53;;;23.35;;
24044;SDS011;26257;49.442;8.422;2022-12-18T10:51:23;39.67;;;20.92;;
24044;SDS011;26257;49.442;8.422;2022-12-18T10:56:21;40.05;;;19.63;;
24044;SDS011;26257;49.442;8.422;2022-12-18T10:59:01;44.65;;;21.75;;
24044;SDS011;26257;49.442;8.422;2022-12-18T11:01:58;45.88;;;21.05;;
24044;SDS011;26257;49.442;8.422;2022-12-18T11:04:51;40.10;;;19.27;;
24044;SDS011;26257;49.442;8.422;2022-12-18T11:07:17;43.00;;;21.30;;
24044;SDS011;26257;49.442;8.422;2022-12-18T11:09:42;42.28;;;19.35;;
24044;SDS011;26257;49.442;8.422;2022-12-18T11:14:42;42.47;;;20.90;;
24044;SDS011;26257;49.442;8.422;2022-12-18T11:17:28;45.95;;;20.92;;
24044;SDS011;26257;49.442;8.422;2022-12-18T11:19:56;48.28;;;21.38;;
24044;SDS011;26257;49.442;8.422;2022-12-18T11:22:33;41.90;;;20.30;;
24044;SDS011;26257;49.442;8.422;2022-12-18T11:25:02;45.60;;;21.15;;
24044;SDS011;26257;49.442;8.422;2022-12-18T11:27:51;44.35;;;20.40;;
24044;SDS011;26257;49.442;8.422;2022-12-18T11:30:21;48.60;;;21.90;;
24044;SDS011;26257;49.442;8.422;2022-12-18T11:32:49;42.20;;;20.77;;
24044;SDS011;26257;49.442;8.422;2022-12-18T11:37:47;49.55;;;23.02;;
24044;SDS011;26257;49.442;8.422;2022-12-18T11:40:20;43.50;;;20.48;;
24044;SDS011;26257;49.442;8.422;2022-12-18T11:43:07;45.05;;;21.38;;
24044;SDS011;26257;49.442;8.422;2022-12-18T11:45:43;57.28;;;25.27;;
24044;SDS011;26257;49.442;8.422;2022-12-18T11:48:18;49.78;;;23.88;;
24044;SDS011;26257;49.442;8.422;2022-12-18T11:50:51;43.40;;;22.27;;
24044;SDS011;26257;49.442;8.422;2022-12-18T11:53:20;42.97;;;21.70;;
24044;SDS011;26257;49.442;8.422;2022-12-18T11:55:51;44.05;;;21.23;;
24044;SDS011;26257;49.442;8.422;2022-12-18T12:07:11;44.33;;;21.45;;
24044;SDS011;26257;49.442;8.422;2022-12-18T12:15:20;44.92;;;22.80;;
24044;SDS011;26257;49.442;8.422;2022-12-18T12:20:51;45.00;;;22.15;;
24044;SDS011;26257;49.442;8.422;2022-12-18T12:23:30;43.83;;;20.10;;
24044;SDS011;26257;49.442;8.422;2022-12-18T12:26:03;47.85;;;21.25;;
24044;SDS011;26257;49.442;8.422;2022-12-18T12:34:16;50.63;;;21.85;;
24044;SDS011;26257;49.442;8.422;2022-12-18T12:39:48;45.03;;;21.20;;
24044;SDS011;26257;49.442;8.422;2022-12-18T12:42:35;47.55;;;22.83;;
24044;SDS011;26257;49.442;8.422;2022-12-18T12:45:30;44.75;;;21.27;;
24044;SDS011;26257;49.442;8.422;2022-12-18T12:48:04;46.72;;;21.90;;
24044;SDS011;26257;49.442;8.422;2022-12-18T12:53:05;47.88;;;20.63;;
24044;SDS011;26257;49.442;8.422;2022-12-18T12:55:33;50.28;;;21.95;;
24044;SDS011;26257;49.442;8.422;2022-12-18T12:58:17;74.85;;;32.10;;
24044;SDS011;26257;49.442;8.422;2022-12-18T13:01:12;57.10;;;24.67;;
24044;SDS011;26257;49.442;8.422;2022-12-18T13:03:56;51.33;;;21.95;;
24044;SDS011;26257;49.442;8.422;2022-12-18T13:08:56;55.95;;;23.17;;
24044;SDS011;26257;49.442;8.422;2022-12-18T13:11:43;51.83;;;22.35;;
24044;SDS011;26257;49.442;8.422;2022-12-18T13:14:33;56.58;;;23.17;;
24044;SDS011;26257;49.442;8.422;2022-12-18T13:22:37;55.78;;;22.58;;
24044;SDS011;26257;49.442;8.422;2022-12-18T13:28:00;52.60;;;21.77;;
24044;SDS011;26257;49.442;8.422;2022-12-18T13:35:55;47.63;;;22.23;;
24044;SDS011;26257;49.442;8.422;2022-12-18T13:38:38;54.38;;;23.20;;
24044;SDS011;26257;49.442;8.422;2022-12-18T13:41:20;51.60;;;21.67;;
24044;SDS011;26257;49.442;8.422;2022-12-18T13:43:52;52.78;;;22.30;;
24044;SDS011;26257;49.442;8.422;2022-12-18T13:46:23;51.65;;;22.23;;
24044;SDS011;26257;49.442;8.422;2022-12-18T13:49:05;53.33;;;22.75;;
24044;SDS011;26257;49.442;8.422;2022-12-18T13:51:32;58.25;;;24.80;;
24044;SDS011;26257;49.442;8.422;2022-12-18T13:54:06;54.83;;;21.95;;
24044;SDS011;26257;49.442;8.422;2022-12-18T13:56:45;52.40;;;22.67;;
24044;SDS011;26257;49.442;8.422;2022-12-18T14:01:55;52.35;;;22.95;;
24044;SDS011;26257;49.442;8.422;2022-12-18T14:04:23;54.13;;;23.48;;
24044;SDS011;26257;49.442;8.422;2022-12-18T14:06:50;57.00;;;23.58;;
24044;SDS011;26257;49.442;8.422;2022-12-18T14:09:29;49.95;;;21.77;;
24044;SDS011;26257;49.442;8.422;2022-12-18T14:11:59;50.10;;;22.70;;
24044;SDS011;26257;49.442;8.422;2022-12-18T14:14:45;54.42;;;21.83;;
24044;SDS011;26257;49.442;8.422;2022-12-18T14:17:13;50.50;;;23.45;;
24044;SDS011;26257;49.442;8.422;2022-12-18T14:19:47;49.17;;;22.15;;
24044;SDS011;26257;49.442;8.422;2022-12-18T14:22:16;48.95;;;22.23;;
24044;SDS011;26257;49.442;8.422;2022-12-18T14:27:25;52.58;;;23.10;;
24044;SDS011;26257;49.442;8.422;2022-12-18T14:29:51;52.63;;;21.98;;
24044;SDS011;26257;49.442;8.422;2022-12-18T14:32:18;53.22;;;20.77;;
24044;SDS011;26257;49.442;8.422;2022-12-18T14:34:49;50.78;;;21.42;;
24044;SDS011;26257;49.442;8.422;2022-12-18T14:37:17;56.58;;;22.27;;
24044;SDS011;26257;49.442;8.422;2022-12-18T14:39:53;46.97;;;20.75;;
24044;SDS011;26257;49.442;8.422;2022-12-18T14:42:22;48.58;;;21.88;;
24044;SDS011;26257;49.442;8.422;2022-12-18T14:44:47;56.33;;;22.58;;
24044;SDS011;26257;49.442;8.422;2022-12-18T14:47:16;48.28;;;20.58;;
24044;SDS011;26257;49.442;8.422;2022-12-18T14:49:42;52.63;;;21.67;;
24044;SDS011;26257;49.442;8.422;2022-12-18T14:52:18;47.33;;;20.65;;
24044;SDS011;26257;49.442;8.422;2022-12-18T14:54:51;56.45;;;23.38;;
24044;SDS011;26257;49.442;8.422;2022-12-18T14:57:20;50.42;;;22.00;;
24044;SDS011;26257;49.442;8.422;2022-12-18T15:00:06;56.22;;;22.58;;
24044;SDS011;26257;49.442;8.422;2022-12-18T15:02:44;55.08;;;23.10;;
24044;SDS011;26257;49.442;8.422;2022-12-18T15:05:25;59.25;;;23.67;;
24044;SDS011;26257;49.442;8.422;2022-12-18T15:07:56;57.13;;;22.55;;
24044;SDS011;26257;49.442;8.422;2022-12-18T15:10:25;55.60;;;22.60;;
24044;SDS011;26257;49.442;8.422;2022-12-18T15:15:49;54.85;;;23.50;;
24044;SDS011;26257;49.442;8.422;2022-12-18T15:18:15;58.75;;;24.25;;
24044;SDS011;26257;49.442;8.422;2022-12-18T15:20:53;56.10;;;22.90;;
24044;SDS011;26257;49.442;8.422;2022-12-18T15:25:58;57.40;;;24.70;;
24044;SDS011;26257;49.442;8.422;2022-12-18T15:28:51;52.70;;;22.77;;
24044;SDS011;26257;49.442;8.422;2022-12-18T15:31:23;53.28;;;21.98;;
24044;SDS011;26257;49.442;8.422;2022-12-18T15:36:19;56.38;;;23.73;;
24044;SDS011;26257;49.442;8.422;2022-12-18T15:38:50;59.50;;;25.25;;
24044;SDS011;26257;49.442;8.422;2022-12-18T15:41:18;55.63;;;25.00;;
24044;SDS011;26257;49.442;8.422;2022-12-18T15:43:47;60.47;;;27.63;;
24044;SDS011;26257;49.442;8.422;2022-12-18T15:48:42;61.47;;;28.65;;
24044;SDS011;26257;49.442;8.422;2022-12-18T15:51:56;62.80;;;29.70;;
24044;SDS011;26257;49.442;8.422;2022-12-18T15:53:59;66.82;;;30.08;;
24044;SDS011;26257;49.442;8.422;2022-12-18T15:56:28;71.65;;;30.88;;
24044;SDS011;26257;49.442;8.422;2022-12-18T15:59:19;83.35;;;37.92;;
24044;SDS011;26257;49.442;8.422;2022-12-18T16:01:47;63.78;;;29.70;;
24044;SDS011;26257;49.442;8.422;2022-12-18T16:04:15;73.88;;;31.17;;
24044;SDS011;26257;49.442;8.422;2022-12-18T16:06:42;66.03;;;30.40;;
24044;SDS011;26257;49.442;8.422;2022-12-18T16:09:07;70.18;;;31.98;;
24044;SDS011;26257;49.442;8.422;2022-12-18T16:11:33;69.63;;;32.13;;
24044;SDS011;26257;49.442;8.422;2022-12-18T16:16:37;64.05;;;30.17;;
24044;SDS011;26257;49.442;8.422;2022-12-18T16:19:02;66.30;;;29.98;;
24044;SDS011;26257;49.442;8.422;2022-12-18T16:21:29;64.82;;;31.48;;
24044;SDS011;26257;49.442;8.422;2022-12-18T16:23:55;74.47;;;32.00;;
24044;SDS011;26257;49.442;8.422;2022-12-18T16:26:21;67.78;;;32.35;;
24044;SDS011;26257;49.442;8.422;2022-12-18T16:28:46;71.03;;;31.85;;
24044;SDS011;26257;49.442;8.422;2022-12-18T16:31:11;73.43;;;31.15;;
24044;SDS011;26257;49.442;8.422;2022-12-18T16:33:37;69.65;;;32.13;;
24044;SDS011;26257;49.442;8.422;2022-12-18T16:36:02;66.60;;;32.75;;
24044;SDS011;26257;49.442;8.422;2022-12-18T16:38:28;68.05;;;32.72;;
24044;SDS011;26257;49.442;8.422;2022-12-18T16:40:53;72.43;;;32.60;;
24044;SDS011;26257;49.442;8.422;2022-12-18T16:43:37;67.43;;;32.35;;
24044;SDS011;26257;49.442;8.422;2022-12-18T16:46:04;71.55;;;34.05;;
24044;SDS011;26257;49.442;8.422;2022-12-18T16:48:29;77.43;;;34.38;;
24044;SDS011;26257;49.442;8.422;2022-12-18T16:50:59;72.30;;;34.60;;
24044;SDS011;26257;49.442;8.422;2022-12-18T16:53:28;70.25;;;33.80;;
24044;SDS011;26257;49.442;8.422;2022-12-18T16:55:55;74.85;;;35.60;;
24044;SDS011;26257;49.442;8.422;2022-12-18T16:58:21;75.50;;;34.28;;
24044;SDS011;26257;49.442;8.422;2022-12-18T17:00:47;70.72;;;35.00;;
24044;SDS011;26257;49.442;8.422;2022-12-18T17:03:12;75.32;;;33.90;;
24044;SDS011;26257;49.442;8.422;2022-12-18T17:05:38;76.03;;;34.35;;
24044;SDS011;26257;49.442;8.422;2022-12-18T17:08:03;75.03;;;32.50;;
24044;SDS011;26257;49.442;8.422;2022-12-18T17:10:29;75.57;;;36.55;;
24044;SDS011;26257;49.442;8.422;2022-12-18T17:12:54;70.72;;;33.47;;
24044;SDS011;26257;49.442;8.422;2022-12-18T17:15:20;81.30;;;34.42;;
24044;SDS011;26257;49.442;8.422;2022-12-18T17:17:45;75.43;;;33.78;;
24044;SDS011;26257;49.442;8.422;2022-12-18T17:20:11;77.95;;;35.72;;
24044;SDS011;26257;49.442;8.422;2022-12-18T17:22:36;78.05;;;35.10;;
24044;SDS011;26257;49.442;8.422;2022-12-18T17:25:02;81.97;;;35.28;;